sensor_id;sensor_type;location;lat;lon;timestamp;pressure;altitude;pressure_sealevel;temperature;humidity
51147;BME280;37207;53.060;18.726;2023-03-01T00:02:04;102164.06;;;-1.63;73.87
51147;BME280;37207;53.060;18.726;2023-03-01T00:04:30;102167.39;;;-1.63;74.12
51147;BME280;37207;53.060;18.726;2023-03-01T00:06:56;102161.61;;;-1.62;74.07
51147;BME280;37207;53.060;18.726;2023-03-01T00:09:22;102158.31;;;-1.59;74.15
51147;BME280;37207;53.060;18.726;2023-03-01T00:11:49;102158.13;;;-1.57;74.19
51147;BME280;37207;53.060;18.726;2023-03-01T00:14:15;102152.48;;;-1.56;74.20
51147;BME280;37207;53.060;18.726;2023-03-01T00:16:45;102143.17;;;-1.57;74.11
51147;BME280;37207;53.060;18.726;2023-03-01T00:19:14;102141.64;;;-1.55;74.17
51147;BME280;37207;53.060;18.726;2023-03-01T00:21:40;102138.42;;;-1.53;73.92
51147;BME280;37207;53.060;18.726;2023-03-01T00:24:07;102141.04;;;-1.50;74.00
51147;BME280;37207;53.060;18.726;2023-03-01T00:26:33;102144.86;;;-1.47;74.21
51147;BME280;37207;53.060;18.726;2023-03-01T00:28:59;102148.17;;;-1.49;73.68
51147;BME280;37207;53.060;18.726;2023-03-01T00:31:28;102145.14;;;-1.50;73.60
51147;BME280;37207;53.060;18.726;2023-03-01T00:33:56;102139.34;;;-1.54;73.79
51147;BME280;37207;53.060;18.726;2023-03-01T00:36:27;102135.27;;;-1.59;73.68
51147;BME280;37207;53.060;18.726;2023-03-01T00:38:54;102132.07;;;-1.64;73.82
51147;BME280;37207;53.060;18.726;2023-03-01T00:41:21;102136.16;;;-1.69;73.88
51147;BME280;37207;53.060;18.726;2023-03-01T00:43:52;102134.09;;;-1.75;74.00
51147;BME280;37207;53.060;18.726;2023-03-01T00:46:23;102133.17;;;-1.79;74.27
51147;BME280;37207;53.060;18.726;2023-03-01T00:48:50;102133.59;;;-1.82;74.19
51147;BME280;37207;53.060;18.726;2023-03-01T00:51:20;102127.88;;;-1.85;74.26
51147;BME280;37207;53.060;18.726;2023-03-01T00:53:49;102125.83;;;-1.87;74.25
51147;BME280;37207;53.060;18.726;2023-03-01T00:56:15;102125.76;;;-1.87;74.09
51147;BME280;37207;53.060;18.726;2023-03-01T00:58:41;102121.83;;;-1.86;74.60
51147;BME280;37207;53.060;18.726;2023-03-01T01:03:54;102116.98;;;-1.84;74.53
51147;BME280;37207;53.060;18.726;2023-03-01T01:06:32;102112.86;;;-1.80;74.76
51147;BME280;37207;53.060;18.726;2023-03-01T01:08:59;102113.17;;;-1.76;74.69
51147;BME280;37207;53.060;18.726;2023-03-01T01:11:27;102114.44;;;-1.74;74.81
51147;BME280;37207;53.060;18.726;2023-03-01T01:13:54;102107.84;;;-1.75;74.45
51147;BME280;37207;53.060;18.726;2023-03-01T01:16:23;102100.60;;;-1.78;74.56
51147;BME280;37207;53.060;18.726;2023-03-01T01:18:51;102089.65;;;-1.81;74.46
51147;BME280;37207;53.060;18.726;2023-03-01T01:21:20;102083.65;;;-1.83;74.30
51147;BME280;37207;53.060;18.726;2023-03-01T01:23:47;102081.59;;;-1.86;74.27
51147;BME280;37207;53.060;18.726;2023-03-01T01:26:16;102082.79;;;-1.88;74.17
51147;BME280;37207;53.060;18.726;2023-03-01T01:28:43;102080.29;;;-1.90;74.12
51147;BME280;37207;53.060;18.726;2023-03-01T01:31:09;102082.58;;;-1.93;73.64
51147;BME280;37207;53.060;18.726;2023-03-01T01:33:35;102079.98;;;-1.95;73.91
51147;BME280;37207;53.060;18.726;2023-03-01T01:36:01;102074.52;;;-1.98;73.91
51147;BME280;37207;53.060;18.726;2023-03-01T01:38:27;102073.80;;;-1.99;74.42
51147;BME280;37207;53.060;18.726;2023-03-01T01:40:53;102076.07;;;-1.98;74.36
51147;BME280;37207;53.060;18.726;2023-03-01T01:43:25;102074.60;;;-1.98;74.69
51147;BME280;37207;53.060;18.726;2023-03-01T01:45:58;102074.19;;;-2.00;74.54
51147;BME280;37207;53.060;18.726;2023-03-01T01:48:38;102070.36;;;-2.02;74.86
51147;BME280;37207;53.060;18.726;2023-03-01T01:51:14;102064.90;;;-2.04;74.62
51147;BME280;37207;53.060;18.726;2023-03-01T01:53:45;102064.98;;;-2.03;74.86
51147;BME280;37207;53.060;18.726;2023-03-01T01:56:15;102065.48;;;-2.02;74.96
51147;BME280;37207;53.060;18.726;2023-03-01T01:58:43;102062.44;;;-2.03;74.99
51147;BME280;37207;53.060;18.726;2023-03-01T02:01:10;102070.66;;;-2.06;75.29
51147;BME280;37207;53.060;18.726;2023-03-01T02:03:39;102070.66;;;-2.08;75.39
51147;BME280;37207;53.060;18.726;2023-03-01T02:06:37;102071.80;;;-2.09;75.24
51147;BME280;37207;53.060;18.726;2023-03-01T02:09:08;102072.79;;;-2.11;75.38
51147;BME280;37207;53.060;18.726;2023-03-01T02:11:36;102072.51;;;-2.13;75.53
51147;BME280;37207;53.060;18.726;2023-03-01T02:14:03;102068.30;;;-2.15;75.44
51147;BME280;37207;53.060;18.726;2023-03-01T02:16:30;102068.27;;;-2.18;75.17
51147;BME280;37207;53.060;18.726;2023-03-01T02:18:57;102066.13;;;-2.20;75.32
51147;BME280;37207;53.060;18.726;2023-03-01T02:24:26;102044.61;;;-2.20;75.47
51147;BME280;37207;53.060;18.726;2023-03-01T02:26:55;102039.80;;;-2.18;75.53
51147;BME280;37207;53.060;18.726;2023-03-01T02:29:22;102037.84;;;-2.14;75.74
51147;BME280;37207;53.060;18.726;2023-03-01T02:31:51;102039.98;;;-2.11;75.59
51147;BME280;37207;53.060;18.726;2023-03-01T02:34:22;102041.39;;;-2.11;75.81
51147;BME280;37207;53.060;18.726;2023-03-01T02:36:57;102037.27;;;-2.12;75.67
51147;BME280;37207;53.060;18.726;2023-03-01T02:39:30;102027.67;;;-2.11;75.92
51147;BME280;37207;53.060;18.726;2023-03-01T02:41:59;102024.63;;;-2.14;75.65
51147;BME280;37207;53.060;18.726;2023-03-01T02:44:25;102022.52;;;-2.15;75.99
51147;BME280;37207;53.060;18.726;2023-03-01T02:46:53;102023.75;;;-2.15;76.16
51147;BME280;37207;53.060;18.726;2023-03-01T02:54:44;102028.08;;;-2.15;75.81
51147;BME280;37207;53.060;18.726;2023-03-01T02:57:13;102028.85;;;-2.15;75.82
51147;BME280;37207;53.060;18.726;2023-03-01T02:59:39;102024.82;;;-2.15;76.22
51147;BME280;37207;53.060;18.726;2023-03-01T03:02:17;102025.64;;;-2.13;75.81
51147;BME280;37207;53.060;18.726;2023-03-01T03:04:46;102031.51;;;-2.09;76.36
51147;BME280;37207;53.060;18.726;2023-03-01T03:07:12;102032.90;;;-2.07;76.19
51147;BME280;37207;53.060;18.726;2023-03-01T03:09:38;102032.69;;;-2.06;75.85
51147;BME280;37207;53.060;18.726;2023-03-01T03:12:04;102026.08;;;-2.03;76.19
51147;BME280;37207;53.060;18.726;2023-03-01T03:14:30;102017.77;;;-2.01;76.05
51147;BME280;37207;53.060;18.726;2023-03-01T03:17:00;102015.85;;;-1.99;76.08
51147;BME280;37207;53.060;18.726;2023-03-01T03:19:26;102010.52;;;-1.98;75.88
51147;BME280;37207;53.060;18.726;2023-03-01T03:21:52;102006.96;;;-1.99;75.69
51147;BME280;37207;53.060;18.726;2023-03-01T03:24:18;102008.05;;;-1.99;75.64
51147;BME280;37207;53.060;18.726;2023-03-01T03:26:44;102002.31;;;-1.99;75.69
51147;BME280;37207;53.060;18.726;2023-03-01T03:29:10;101998.06;;;-1.99;75.78
51147;BME280;37207;53.060;18.726;2023-03-01T03:31:35;101991.21;;;-2.02;75.30
51147;BME280;37207;53.060;18.726;2023-03-01T03:34:01;101986.04;;;-2.06;75.44
51147;BME280;37207;53.060;18.726;2023-03-01T03:36:27;101983.46;;;-2.09;75.10
51147;BME280;37207;53.060;18.726;2023-03-01T03:38:53;101983.89;;;-2.12;75.71
51147;BME280;37207;53.060;18.726;2023-03-01T03:41:19;101993.20;;;-2.14;75.51
51147;BME280;37207;53.060;18.726;2023-03-01T03:43:45;101992.54;;;-2.17;75.47
51147;BME280;37207;53.060;18.726;2023-03-01T03:46:11;101995.83;;;-2.19;75.43
51147;BME280;37207;53.060;18.726;2023-03-01T03:48:43;101994.93;;;-2.22;75.31
51147;BME280;37207;53.060;18.726;2023-03-01T03:51:12;101997.24;;;-2.22;75.73
51147;BME280;37207;53.060;18.726;2023-03-01T03:53:38;102002.89;;;-2.22;75.68
51147;BME280;37207;53.060;18.726;2023-03-01T03:56:04;102012.01;;;-2.23;75.75
51147;BME280;37207;53.060;18.726;2023-03-01T03:58:30;102022.20;;;-2.25;75.91
51147;BME280;37207;53.060;18.726;2023-03-01T04:00:57;102021.43;;;-2.25;75.87
51147;BME280;37207;53.060;18.726;2023-03-01T04:03:25;102019.10;;;-2.25;75.92
51147;BME280;37207;53.060;18.726;2023-03-01T04:05:51;102020.35;;;-2.24;76.15
51147;BME280;37207;53.060;18.726;2023-03-01T04:08:19;102015.15;;;-2.20;76.46
51147;BME280;37207;53.060;18.726;2023-03-01T04:10:47;102013.36;;;-2.16;76.33
51147;BME280;37207;53.060;18.726;2023-03-01T04:13:17;102011.60;;;-2.11;76.40
51147;BME280;37207;53.060;18.726;2023-03-01T04:15:46;102010.09;;;-2.08;76.40
51147;BME280;37207;53.060;18.726;2023-03-01T04:18:15;102005.91;;;-2.06;76.25
51147;BME280;37207;53.060;18.726;2023-03-01T04:20:42;102004.08;;;-2.05;76.27
51147;BME280;37207;53.060;18.726;2023-03-01T04:23:15;101997.09;;;-2.01;76.50
51147;BME280;37207;53.060;18.726;2023-03-01T04:25:55;101996.07;;;-1.98;76.54
51147;BME280;37207;53.060;18.726;2023-03-01T04:28:26;101989.30;;;-1.95;76.52
51147;BME280;37207;53.060;18.726;2023-03-01T04:30:53;101987.45;;;-1.95;76.49
51147;BME280;37207;53.060;18.726;2023-03-01T04:33:20;101983.93;;;-1.97;76.12
51147;BME280;37207;53.060;18.726;2023-03-01T04:35:47;101985.26;;;-2.01;76.18
51147;BME280;37207;53.060;18.726;2023-03-01T04:38:18;101976.29;;;-2.06;75.66
51147;BME280;37207;53.060;18.726;2023-03-01T04:40:44;101967.66;;;-2.10;75.90
51147;BME280;37207;53.060;18.726;2023-03-01T04:43:11;101962.34;;;-2.14;75.72
51147;BME280;37207;53.060;18.726;2023-03-01T04:45:40;101964.05;;;-2.19;75.63
51147;BME280;37207;53.060;18.726;2023-03-01T04:48:06;101967.48;;;-2.21;75.87
51147;BME280;37207;53.060;18.726;2023-03-01T04:50:32;101965.53;;;-2.22;75.74
51147;BME280;37207;53.060;18.726;2023-03-01T04:52:58;101958.41;;;-2.23;75.69
51147;BME280;37207;53.060;18.726;2023-03-01T04:55:28;101954.33;;;-2.22;75.77
51147;BME280;37207;53.060;18.726;2023-03-01T04:57:54;101956.71;;;-2.23;75.97
51147;BME280;37207;53.060;18.726;2023-03-01T05:00:21;101960.67;;;-2.22;76.25
51147;BME280;37207;53.060;18.726;2023-03-01T05:02:53;101957.52;;;-2.20;75.97
51147;BME280;37207;53.060;18.726;2023-03-01T05:05:33;101962.84;;;-2.17;76.56
51147;BME280;37207;53.060;18.726;2023-03-01T05:08:01;101963.11;;;-2.15;76.42
51147;BME280;37207;53.060;18.726;2023-03-01T05:10:29;101969.73;;;-2.12;76.31
51147;BME280;37207;53.060;18.726;2023-03-01T05:12:56;101973.95;;;-2.09;76.58
51147;BME280;37207;53.060;18.726;2023-03-01T05:15:28;101975.98;;;-2.06;76.63
51147;BME280;37207;53.060;18.726;2023-03-01T05:17:56;101972.75;;;-2.04;76.61
51147;BME280;37207;53.060;18.726;2023-03-01T05:20:25;101974.02;;;-2.03;76.25
51147;BME280;37207;53.060;18.726;2023-03-01T05:22:51;101970.64;;;-2.01;76.06
51147;BME280;37207;53.060;18.726;2023-03-01T05:25:18;101972.00;;;-1.98;76.27
51147;BME280;37207;53.060;18.726;2023-03-01T05:27:43;101975.60;;;-1.95;76.31
51147;BME280;37207;53.060;18.726;2023-03-01T05:30:10;101976.35;;;-1.91;76.47
51147;BME280;37207;53.060;18.726;2023-03-01T05:32:47;101976.50;;;-1.86;76.39
51147;BME280;37207;53.060;18.726;2023-03-01T05:35:15;101976.26;;;-1.81;76.67
51147;BME280;37207;53.060;18.726;2023-03-01T05:37:43;101973.30;;;-1.77;76.53
51147;BME280;37207;53.060;18.726;2023-03-01T05:40:18;101969.85;;;-1.73;76.44
51147;BME280;37207;53.060;18.726;2023-03-01T05:42:47;101969.95;;;-1.70;76.39
51147;BME280;37207;53.060;18.726;2023-03-01T05:45:15;101970.13;;;-1.69;76.26
51147;BME280;37207;53.060;18.726;2023-03-01T05:47:43;101967.33;;;-1.69;76.51
51147;BME280;37207;53.060;18.726;2023-03-01T05:50:12;101975.46;;;-1.69;76.21
51147;BME280;37207;53.060;18.726;2023-03-01T05:52:39;101979.64;;;-1.69;76.27
51147;BME280;37207;53.060;18.726;2023-03-01T05:55:06;101979.80;;;-1.68;76.36
51147;BME280;37207;53.060;18.726;2023-03-01T05:57:32;101972.39;;;-1.67;76.20
51147;BME280;37207;53.060;18.726;2023-03-01T05:59:58;101965.21;;;-1.65;76.61
51147;BME280;37207;53.060;18.726;2023-03-01T06:02:24;101964.80;;;-1.62;76.26
51147;BME280;37207;53.060;18.726;2023-03-01T06:04:50;101966.34;;;-1.57;76.40
51147;BME280;37207;53.060;18.726;2023-03-01T06:07:16;101960.86;;;-1.54;76.43
51147;BME280;37207;53.060;18.726;2023-03-01T06:09:42;101964.03;;;-1.49;76.34
51147;BME280;37207;53.060;18.726;2023-03-01T06:12:07;101964.79;;;-1.44;76.24
51147;BME280;37207;53.060;18.726;2023-03-01T06:14:33;101969.64;;;-1.39;76.07
51147;BME280;37207;53.060;18.726;2023-03-01T06:16:59;101967.73;;;-1.36;76.18
51147;BME280;37207;53.060;18.726;2023-03-01T06:19:25;101970.86;;;-1.32;76.07
51147;BME280;37207;53.060;18.726;2023-03-01T06:21:51;101971.52;;;-1.30;76.12
51147;BME280;37207;53.060;18.726;2023-03-01T06:24:17;101977.45;;;-1.27;76.02
51147;BME280;37207;53.060;18.726;2023-03-01T06:26:42;101975.94;;;-1.23;75.72
51147;BME280;37207;53.060;18.726;2023-03-01T06:29:08;101976.03;;;-1.23;75.64
51147;BME280;37207;53.060;18.726;2023-03-01T06:31:34;101975.49;;;-1.20;75.71
51147;BME280;37207;53.060;18.726;2023-03-01T06:34:00;101981.65;;;-1.17;76.16
51147;BME280;37207;53.060;18.726;2023-03-01T06:36:26;101983.94;;;-1.13;75.82
51147;BME280;37207;53.060;18.726;2023-03-01T06:38:52;101985.00;;;-1.09;75.85
51147;BME280;37207;53.060;18.726;2023-03-01T06:41:18;101985.30;;;-1.01;75.91
51147;BME280;37207;53.060;18.726;2023-03-01T06:43:43;101982.92;;;-0.92;75.75
51147;BME280;37207;53.060;18.726;2023-03-01T06:46:09;101985.13;;;-0.80;75.98
51147;BME280;37207;53.060;18.726;2023-03-01T06:48:35;101981.81;;;-0.58;75.91
51147;BME280;37207;53.060;18.726;2023-03-01T06:51:01;101980.15;;;-0.33;75.66
51147;BME280;37207;53.060;18.726;2023-03-01T06:53:28;101981.99;;;-0.13;75.53
51147;BME280;37207;53.060;18.726;2023-03-01T06:55:58;101978.29;;;0.02;75.05
51147;BME280;37207;53.060;18.726;2023-03-01T06:58:26;101973.08;;;0.16;74.94
51147;BME280;37207;53.060;18.726;2023-03-01T07:00:51;101973.08;;;0.33;75.03
51147;BME280;37207;53.060;18.726;2023-03-01T07:03:17;101971.13;;;0.50;74.65
51147;BME280;37207;53.060;18.726;2023-03-01T07:05:43;101969.34;;;0.72;74.41
51147;BME280;37207;53.060;18.726;2023-03-01T07:08:10;101963.09;;;0.99;73.88
51147;BME280;37207;53.060;18.726;2023-03-01T07:10:36;101962.81;;;1.36;73.70
51147;BME280;37207;53.060;18.726;2023-03-01T07:13:02;101963.80;;;1.75;73.27
51147;BME280;37207;53.060;18.726;2023-03-01T07:15:28;101955.08;;;2.12;72.89
51147;BME280;37207;53.060;18.726;2023-03-01T07:17:54;101950.79;;;2.31;72.29
51147;BME280;37207;53.060;18.726;2023-03-01T07:20:20;101950.34;;;2.45;71.66
51147;BME280;37207;53.060;18.726;2023-03-01T07:22:51;101945.70;;;2.53;71.08
51147;BME280;37207;53.060;18.726;2023-03-01T07:25:17;101948.39;;;2.63;70.88
51147;BME280;37207;53.060;18.726;2023-03-01T07:27:43;101950.70;;;2.80;70.71
51147;BME280;37207;53.060;18.726;2023-03-01T07:30:09;101958.16;;;2.97;70.18
51147;BME280;37207;53.060;18.726;2023-03-01T07:32:35;101961.91;;;3.18;70.47
51147;BME280;37207;53.060;18.726;2023-03-01T07:35:01;101954.27;;;3.63;70.16
51147;BME280;37207;53.060;18.726;2023-03-01T07:37:27;101952.26;;;4.21;69.43
51147;BME280;37207;53.060;18.726;2023-03-01T07:39:53;101952.04;;;4.90;68.41
51147;BME280;37207;53.060;18.726;2023-03-01T07:42:19;101950.69;;;6.00;66.80
51147;BME280;37207;53.060;18.726;2023-03-01T07:44:44;101949.52;;;7.29;65.63
51147;BME280;37207;53.060;18.726;2023-03-01T07:47:10;101944.02;;;8.47;63.89
51147;BME280;37207;53.060;18.726;2023-03-01T07:49:36;101945.29;;;9.28;63.12
51147;BME280;37207;53.060;18.726;2023-03-01T07:52:02;101943.30;;;9.75;61.19
51147;BME280;37207;53.060;18.726;2023-03-01T07:54:28;101947.13;;;10.32;59.93
51147;BME280;37207;53.060;18.726;2023-03-01T07:56:54;101945.88;;;11.00;59.36
51147;BME280;37207;53.060;18.726;2023-03-01T07:59:20;101946.94;;;11.77;58.49
51147;BME280;37207;53.060;18.726;2023-03-01T08:01:46;101945.77;;;12.36;56.85
51147;BME280;37207;53.060;18.726;2023-03-01T08:04:12;101942.09;;;12.61;54.86
51147;BME280;37207;53.060;18.726;2023-03-01T08:06:38;101939.55;;;12.76;53.79
51147;BME280;37207;53.060;18.726;2023-03-01T08:09:04;101936.02;;;12.92;53.56
51147;BME280;37207;53.060;18.726;2023-03-01T08:11:29;101931.46;;;13.11;52.70
51147;BME280;37207;53.060;18.726;2023-03-01T08:13:56;101929.73;;;13.55;53.13
51147;BME280;37207;53.060;18.726;2023-03-01T08:16:23;101927.33;;;14.28;52.50
51147;BME280;37207;53.060;18.726;2023-03-01T08:18:49;101933.27;;;14.84;50.95
51147;BME280;37207;53.060;18.726;2023-03-01T08:21:17;101931.92;;;15.21;49.16
51147;BME280;37207;53.060;18.726;2023-03-01T08:23:43;101937.56;;;15.04;48.18
51147;BME280;37207;53.060;18.726;2023-03-01T08:28:38;101939.38;;;12.72;48.48
51147;BME280;37207;53.060;18.726;2023-03-01T08:31:18;101939.66;;;11.65;49.33
51147;BME280;37207;53.060;18.726;2023-03-01T08:33:46;101945.23;;;10.71;50.89
51147;BME280;37207;53.060;18.726;2023-03-01T08:36:17;101939.30;;;9.99;51.75
51147;BME280;37207;53.060;18.726;2023-03-01T08:38:43;101938.84;;;9.28;52.26
51147;BME280;37207;53.060;18.726;2023-03-01T08:41:09;101936.12;;;8.64;53.03
51147;BME280;37207;53.060;18.726;2023-03-01T08:43:35;101937.30;;;8.10;53.78
51147;BME280;37207;53.060;18.726;2023-03-01T08:46:01;101935.52;;;7.65;54.61
51147;BME280;37207;53.060;18.726;2023-03-01T08:48:28;101939.37;;;7.27;55.12
51147;BME280;37207;53.060;18.726;2023-03-01T08:50:55;101943.80;;;6.90;55.59
51147;BME280;37207;53.060;18.726;2023-03-01T08:53:20;101945.48;;;6.56;56.38
51147;BME280;37207;53.060;18.726;2023-03-01T08:55:46;101945.69;;;6.32;57.14
51147;BME280;37207;53.060;18.726;2023-03-01T08:58:12;101948.52;;;6.12;58.06
51147;BME280;37207;53.060;18.726;2023-03-01T09:00:39;101947.66;;;6.00;58.83
51147;BME280;37207;53.060;18.726;2023-03-01T09:03:05;101950.05;;;5.89;59.40
51147;BME280;37207;53.060;18.726;2023-03-01T09:05:33;101952.10;;;5.78;59.46
51147;BME280;37207;53.060;18.726;2023-03-01T09:07:59;101950.00;;;5.69;59.83
51147;BME280;37207;53.060;18.726;2023-03-01T09:10:25;101951.23;;;5.61;60.25
51147;BME280;37207;53.060;18.726;2023-03-01T09:12:51;101952.06;;;5.63;60.69
51147;BME280;37207;53.060;18.726;2023-03-01T09:15:17;101952.60;;;6.07;60.59
51147;BME280;37207;53.060;18.726;2023-03-01T09:17:43;101948.69;;;7.18;59.93
51147;BME280;37207;53.060;18.726;2023-03-01T09:20:10;101942.60;;;8.92;57.97
51147;BME280;37207;53.060;18.726;2023-03-01T09:22:36;101944.24;;;10.78;55.95
51147;BME280;37207;53.060;18.726;2023-03-01T09:25:02;101934.05;;;12.61;54.52
51147;BME280;37207;53.060;18.726;2023-03-01T09:27:28;101931.15;;;14.17;51.79
51147;BME280;37207;53.060;18.726;2023-03-01T09:29:54;101929.98;;;15.38;50.09
51147;BME280;37207;53.060;18.726;2023-03-01T09:32:21;101928.77;;;16.15;48.95
51147;BME280;37207;53.060;18.726;2023-03-01T09:34:47;101916.61;;;17.00;49.07
51147;BME280;37207;53.060;18.726;2023-03-01T09:37:33;101912.95;;;16.76;48.37
51147;BME280;37207;53.060;18.726;2023-03-01T09:39:59;101912.46;;;15.64;48.03
51147;BME280;37207;53.060;18.726;2023-03-01T09:42:27;101912.98;;;14.76;48.27
51147;BME280;37207;53.060;18.726;2023-03-01T09:45:04;101918.70;;;15.31;48.64
51147;BME280;37207;53.060;18.726;2023-03-01T09:47:33;101916.10;;;15.62;48.48
51147;BME280;37207;53.060;18.726;2023-03-01T09:50:14;101917.51;;;14.78;48.22
51147;BME280;37207;53.060;18.726;2023-03-01T09:58:41;101914.05;;;16.74;47.85
51147;BME280;37207;53.060;18.726;2023-03-01T10:04:48;101899.49;;;18.65;45.30
51147;BME280;37207;53.060;18.726;2023-03-01T10:10:32;101892.98;;;18.53;44.52
51147;BME280;37207;53.060;18.726;2023-03-01T10:13:50;101888.90;;;17.98;45.08
51147;BME280;37207;53.060;18.726;2023-03-01T10:15:55;101883.38;;;17.35;45.85
51147;BME280;37207;53.060;18.726;2023-03-01T10:18:26;101880.39;;;16.55;45.13
51147;BME280;37207;53.060;18.726;2023-03-01T10:20:57;101875.06;;;15.69;45.99
51147;BME280;37207;53.060;18.726;2023-03-01T10:23:25;101861.46;;;14.88;46.74
51147;BME280;37207;53.060;18.726;2023-03-01T10:26:09;101856.27;;;14.19;47.20
51147;BME280;37207;53.060;18.726;2023-03-01T10:31:20;101859.26;;;13.36;49.49
51147;BME280;37207;53.060;18.726;2023-03-01T10:33:47;101855.98;;;13.14;50.45
51147;BME280;37207;53.060;18.726;2023-03-01T10:36:17;101851.35;;;12.89;49.98
51147;BME280;37207;53.060;18.726;2023-03-01T10:38:53;101841.77;;;12.60;50.37
51147;BME280;37207;53.060;18.726;2023-03-01T10:41:21;101835.33;;;12.38;50.90
51147;BME280;37207;53.060;18.726;2023-03-01T10:43:53;101826.23;;;12.26;51.31
51147;BME280;37207;53.060;18.726;2023-03-01T10:49:22;101829.62;;;12.29;52.12
51147;BME280;37207;53.060;18.726;2023-03-01T10:51:50;101825.38;;;12.30;51.44
51147;BME280;37207;53.060;18.726;2023-03-01T10:54:30;101832.52;;;12.35;51.84
51147;BME280;37207;53.060;18.726;2023-03-01T10:57:00;101834.61;;;12.51;51.82
51147;BME280;37207;53.060;18.726;2023-03-01T10:59:30;101833.03;;;12.65;52.00
51147;BME280;37207;53.060;18.726;2023-03-01T11:04:27;101825.12;;;13.10;51.65
51147;BME280;37207;53.060;18.726;2023-03-01T11:06:58;101822.89;;;13.47;51.53
51147;BME280;37207;53.060;18.726;2023-03-01T11:09:25;101824.89;;;13.95;50.24
51147;BME280;37207;53.060;18.726;2023-03-01T11:11:55;101826.58;;;14.46;49.87
51147;BME280;37207;53.060;18.726;2023-03-01T11:14:24;101825.30;;;15.12;48.95
51147;BME280;37207;53.060;18.726;2023-03-01T11:19:27;101811.02;;;17.13;46.88
51147;BME280;37207;53.060;18.726;2023-03-01T11:22:17;101807.39;;;18.20;45.07
51147;BME280;37207;53.060;18.726;2023-03-01T11:24:51;101807.50;;;19.15;42.28
51147;BME280;37207;53.060;18.726;2023-03-01T11:27:37;101804.30;;;19.70;41.13
51147;BME280;37207;53.060;18.726;2023-03-01T11:30:05;101802.48;;;19.64;39.85
51147;BME280;37207;53.060;18.726;2023-03-01T11:32:50;101802.90;;;18.99;39.93
51147;BME280;37207;53.060;18.726;2023-03-01T11:35:23;101801.58;;;18.46;40.46
51147;BME280;37207;53.060;18.726;2023-03-01T11:40:27;101800.76;;;19.76;39.20
51147;BME280;37207;53.060;18.726;2023-03-01T11:43:19;101792.41;;;20.64;38.09
51147;BME280;37207;53.060;18.726;2023-03-01T11:45:54;101790.95;;;21.47;36.88
51147;BME280;37207;53.060;18.726;2023-03-01T11:57:04;101791.52;;;22.50;34.65
51147;BME280;37207;53.060;18.726;2023-03-01T11:59:44;101796.02;;;22.50;34.11
51147;BME280;37207;53.060;18.726;2023-03-01T12:08:22;101806.80;;;21.37;34.89
51147;BME280;37207;53.060;18.726;2023-03-01T12:11:23;101808.59;;;20.90;35.50
51147;BME280;37207;53.060;18.726;2023-03-01T12:16:55;101810.36;;;18.52;37.19
51147;BME280;37207;53.060;18.726;2023-03-01T12:20:30;101807.30;;;17.54;38.03
51147;BME280;37207;53.060;18.726;2023-03-01T12:22:50;101808.77;;;16.87;39.40
51147;BME280;37207;53.060;18.726;2023-03-01T12:25:28;101807.95;;;16.61;40.56
51147;BME280;37207;53.060;18.726;2023-03-01T12:28:10;101802.30;;;16.56;40.45
51147;BME280;37207;53.060;18.726;2023-03-01T12:33:26;101795.36;;;16.85;40.42
51147;BME280;37207;53.060;18.726;2023-03-01T12:39:13;101788.21;;;16.84;40.84
51147;BME280;37207;53.060;18.726;2023-03-01T12:41:50;101784.53;;;16.68;41.32
51147;BME280;37207;53.060;18.726;2023-03-01T12:50:04;101774.65;;;15.75;43.02
51147;BME280;37207;53.060;18.726;2023-03-01T12:52:55;101773.52;;;15.48;43.43
51147;BME280;37207;53.060;18.726;2023-03-01T12:55:29;101773.30;;;15.28;44.06
51147;BME280;37207;53.060;18.726;2023-03-01T12:58:20;101769.73;;;15.22;43.89
51147;BME280;37207;53.060;18.726;2023-03-01T13:00:59;101773.70;;;14.75;44.60
51147;BME280;37207;53.060;18.726;2023-03-01T13:03:37;101776.86;;;14.47;45.15
51147;BME280;37207;53.060;18.726;2023-03-01T13:06:17;101779.24;;;14.28;45.37
51147;BME280;37207;53.060;18.726;2023-03-01T13:09:07;101776.45;;;14.04;45.80
51147;BME280;37207;53.060;18.726;2023-03-01T13:11:41;101779.77;;;13.81;46.59
51147;BME280;37207;53.060;18.726;2023-03-01T13:16:46;101771.40;;;13.58;47.25
51147;BME280;37207;53.060;18.726;2023-03-01T13:19:17;101771.73;;;13.50;47.73
51147;BME280;37207;53.060;18.726;2023-03-01T13:21:45;101771.79;;;13.48;47.98
51147;BME280;37207;53.060;18.726;2023-03-01T13:24:39;101770.38;;;13.43;48.10
51147;BME280;37207;53.060;18.726;2023-03-01T13:29:52;101762.27;;;13.39;48.46
51147;BME280;37207;53.060;18.726;2023-03-01T13:32:35;101758.36;;;13.38;49.07
51147;BME280;37207;53.060;18.726;2023-03-01T13:37:41;101747.39;;;13.42;48.91
51147;BME280;37207;53.060;18.726;2023-03-01T13:42:54;101744.30;;;13.46;49.56
51147;BME280;37207;53.060;18.726;2023-03-01T13:45:24;101750.95;;;13.55;49.60
51147;BME280;37207;53.060;18.726;2023-03-01T13:48:02;101750.21;;;13.59;49.50
51147;BME280;37207;53.060;18.726;2023-03-01T13:50:33;101752.41;;;13.71;49.33
51147;BME280;37207;53.060;18.726;2023-03-01T13:53:05;101751.25;;;13.79;49.42
51147;BME280;37207;53.060;18.726;2023-03-01T13:55:38;101743.77;;;13.85;49.29
51147;BME280;37207;53.060;18.726;2023-03-01T13:58:23;101744.35;;;13.90;49.36
51147;BME280;37207;53.060;18.726;2023-03-01T14:01:07;101743.05;;;14.04;49.40
51147;BME280;37207;53.060;18.726;2023-03-01T14:03:40;101738.86;;;14.16;48.92
51147;BME280;37207;53.060;18.726;2023-03-01T14:06:12;101740.04;;;14.11;48.14
51147;BME280;37207;53.060;18.726;2023-03-01T14:08:40;101734.94;;;14.05;48.60
51147;BME280;37207;53.060;18.726;2023-03-01T14:16:35;101739.40;;;14.40;47.94
51147;BME280;37207;53.060;18.726;2023-03-01T14:21:42;101729.87;;;14.24;47.79